Time;durP1;ratioP1;P1;durP2;ratioP2;P2;SDS_P1;SDS_P2;PMS_P1;PMS_P2;Temp;Humidity;BMP_temperature;BMP_pressure;BME280_temperature;BME280_humidity;BME280_pressure;Samples;Min_cycle;Max_cycle;Signal;HPM_P1;HPM_P2
2022/08/26 00:00:55;;;;;;;5.80;5.20;;;25.80;57.90;;;;;;5062210;28;20451;-71
2022/08/26 00:03:22;;;;;;;5.60;4.73;;;25.80;57.90;;;;;;5063606;28;20227;-70
2022/08/26 00:05:49;;;;;;;6.87;6.17;;;25.80;58.00;;;;;;5054113;28;20221;-70
2022/08/26 00:08:18;;;;;;;6.17;5.10;;;25.70;57.90;;;;;;5046183;28;20471;-71
2022/08/26 00:10:44;;;;;;;7.80;5.77;;;25.70;57.80;;;;;;5067339;28;20469;-70
2022/08/26 00:13:10;;;;;;;4.77;4.37;;;25.70;57.90;;;;;;5051913;28;20464;-70
2022/08/26 00:15:37;;;;;;;6.43;5.83;;;25.70;58.20;;;;;;5060489;28;20289;-70
2022/08/26 00:18:03;;;;;;;6.63;5.83;;;25.70;58.30;;;;;;5067451;28;20507;-70
2022/08/26 00:20:32;;;;;;;6.27;5.17;;;25.60;58.20;;;;;;5065166;28;20453;-69
2022/08/26 00:22:58;;;;;;;6.50;5.90;;;25.60;58.50;;;;;;5068014;28;20457;-70
2022/08/26 00:25:25;;;;;;;5.50;5.00;;;25.60;58.20;;;;;;5079046;28;20869;-69
2022/08/26 00:27:50;;;;;;;5.37;4.87;;;25.50;58.20;;;;;;5065735;28;20325;-70
2022/08/26 00:30:22;;;;;;;5.73;5.20;;;25.50;58.30;;;;;;5067073;28;20555;-70
2022/08/26 00:32:47;;;;;;;9.03;4.63;;;25.50;58.30;;;;;;5065687;28;20264;-69
2022/08/26 00:35:14;;;;;;;6.10;5.30;;;25.50;58.40;;;;;;5067001;28;20466;-70
2022/08/26 00:37:40;;;;;;;6.20;5.60;;;25.50;58.50;;;;;;5073953;28;20214;-70
2022/08/26 00:40:11;;;;;;;5.83;5.23;;;25.40;58.40;;;;;;5072766;28;20465;-70
2022/08/26 00:42:36;;;;;;;7.40;5.30;;;25.40;58.60;;;;;;5062394;28;20454;-69
2022/08/26 00:45:04;;;;;;;6.97;5.80;;;25.40;58.40;;;;;;5067166;28;20462;-69
2022/08/26 00:47:41;;;;;;;9.13;6.20;;;25.30;58.60;;;;;;5064758;28;20216;-70
2022/08/26 00:50:10;;;;;;;5.70;5.20;;;25.30;58.60;;;;;;5063794;28;20497;-70
2022/08/26 00:52:36;;;;;;;5.70;5.20;;;25.30;58.60;;;;;;5062885;28;20450;-69
2022/08/26 00:55:16;;;;;;;6.10;5.60;;;25.20;58.80;;;;;;5050198;28;20511;-70
2022/08/26 00:57:42;;;;;;;6.83;5.77;;;25.20;58.90;;;;;;5062010;28;20548;-70
2022/08/26 01:00:13;;;;;;;7.40;6.50;;;25.20;59.20;;;;;;5066373;28;20471;-69
2022/08/26 01:02:39;;;;;;;6.47;5.80;;;25.20;58.80;;;;;;5061709;28;20811;-69
2022/08/26 01:05:07;;;;;;;5.40;4.90;;;25.10;58.80;;;;;;5065805;28;20843;-70
2022/08/26 01:07:33;;;;;;;6.60;5.00;;;25.10;59.20;;;;;;5062530;28;20495;-69
2022/08/26 01:10:01;;;;;;;5.80;5.23;;;25.00;59.10;;;;;;5064995;28;20552;-70
2022/08/26 01:12:31;;;;;;;5.93;5.33;;;25.00;59.30;;;;;;5063390;28;20457;-70
2022/08/26 01:14:57;;;;;;;6.90;5.37;;;24.90;59.20;;;;;;5063307;28;20457;-70
2022/08/26 01:17:23;;;;;;;7.67;5.30;;;24.90;59.20;;;;;;5063311;28;20816;-69
2022/08/26 01:19:57;;;;;;;5.90;5.20;;;24.90;59.60;;;;;;5065685;28;20468;-70
2022/08/26 01:22:30;;;;;;;6.43;5.73;;;24.90;59.00;;;;;;5063873;28;20222;-70
2022/08/26 01:24:58;;;;;;;6.93;5.47;;;24.90;59.10;;;;;;5063756;28;20548;-71
2022/08/26 01:27:29;;;;;;;6.87;5.77;;;24.90;59.10;;;;;;5081030;28;20462;-70
2022/08/26 01:29:56;;;;;;;6.23;5.50;;;24.90;59.20;;;;;;5065874;28;20457;-70
2022/08/26 01:32:23;;;;;;;5.87;5.27;;;24.90;59.10;;;;;;5057785;28;20477;-69
2022/08/26 01:34:49;;;;;;;6.00;5.40;;;24.80;59.30;;;;;;5064075;28;20453;-70
2022/08/26 01:37:19;;;;;;;5.93;5.37;;;24.80;59.20;;;;;;5063676;28;20556;-69
2022/08/26 01:39:48;;;;;;;6.20;4.80;;;24.80;59.30;;;;;;5062856;28;20984;-70
2022/08/26 01:42:17;;;;;;;5.30;4.80;;;24.70;59.40;;;;;;5058680;28;20485;-70
2022/08/26 01:45:00;;;;;;;5.30;4.77;;;24.70;59.30;;;;;;5047029;28;20469;-70
2022/08/26 01:47:29;;;;;;;5.97;4.80;;;24.70;59.30;;;;;;5063711;28;20457;-69
2022/08/26 01:49:58;;;;;;;6.40;5.57;;;24.70;59.30;;;;;;5065986;28;20453;-70
2022/08/26 01:52:27;;;;;;;6.37;5.03;;;24.70;59.30;;;;;;5054984;28;20538;-70
2022/08/26 01:54:56;;;;;;;6.00;5.10;;;24.60;59.10;;;;;;5065823;28;20804;-70
2022/08/26 01:57:23;;;;;;;5.70;5.00;;;24.60;59.00;;;;;;5063760;28;21070;-70
2022/08/26 01:59:50;;;;;;;8.37;5.87;;;24.60;59.10;;;;;;5048663;28;20465;-70
2022/08/26 02:02:16;;;;;;;7.10;5.20;;;24.60;59.40;;;;;;5064296;28;20545;-70
2022/08/26 02:04:57;;;;;;;5.10;4.60;;;24.60;59.10;;;;;;5065178;28;20462;-70
2022/08/26 02:07:23;;;;;;;5.00;4.50;;;24.60;59.10;;;;;;5053827;28;20540;-70
2022/08/26 02:09:49;;;;;;;5.27;4.77;;;24.50;59.20;;;;;;5038161;28;20460;-69
2022/08/26 02:12:17;;;;;;;5.50;5.00;;;24.50;59.00;;;;;;5063555;28;20456;-70
2022/08/26 02:14:49;;;;;;;8.17;5.40;;;24.50;58.90;;;;;;5048154;28;20220;-70
2022/08/26 02:17:17;;;;;;;5.73;4.90;;;24.50;59.10;;;;;;5049449;28;20548;-70
2022/08/26 02:19:46;;;;;;;5.10;4.70;;;24.50;59.10;;;;;;5064272;28;20465;-70
2022/08/26 02:22:16;;;;;;;6.30;5.70;;;24.50;59.00;;;;;;5062203;28;20461;-69
2022/08/26 02:24:55;;;;;;;5.53;5.03;;;24.50;59.20;;;;;;5059531;28;20465;-70
2022/08/26 02:27:29;;;;;;;5.47;4.97;;;24.40;59.20;;;;;;5067140;28;20453;-70
2022/08/26 02:30:19;;;;;;;5.90;5.40;;;24.40;59.30;;;;;;5069930;28;20452;-70
2022/08/26 02:32:45;;;;;;;4.73;4.33;;;24.40;59.30;;;;;;5069163;28;21023;-70
2022/08/26 02:35:13;;;;;;;9.20;5.30;;;24.30;59.50;;;;;;5064097;28;20465;-71
2022/08/26 02:37:40;;;;;;;7.87;5.47;;;24.30;59.70;;;;;;5051249;28;20465;-70
2022/08/26 02:40:06;;;;;;;7.00;5.13;;;24.30;59.50;;;;;;5068828;28;20469;-70
2022/08/26 02:42:32;;;;;;;5.67;4.90;;;24.30;59.50;;;;;;5069681;28;20459;-70
2022/08/26 02:44:58;;;;;;;6.20;5.20;;;24.30;59.40;;;;;;5069327;28;20915;-68
2022/08/26 02:47:24;;;;;;;5.33;4.83;;;24.30;59.30;;;;;;5065090;28;20203;-70
2022/08/26 02:49:50;;;;;;;6.53;5.93;;;24.20;59.30;;;;;;5053992;28;20296;-70
2022/08/26 02:52:16;;;;;;;5.30;4.90;;;24.20;59.50;;;;;;5068086;28;20483;-70
2022/08/26 02:54:43;;;;;;;4.73;4.33;;;24.20;59.50;;;;;;5065781;28;20563;-69
2022/08/26 02:57:09;;;;;;;4.57;4.10;;;24.20;59.60;;;;;;5065427;28;20452;-69
2022/08/26 02:59:38;;;;;;;5.63;5.13;;;24.20;59.50;;;;;;5063709;28;20472;-70
2022/08/26 03:02:04;;;;;;;7.70;5.47;;;24.00;59.60;;;;;;5053700;28;20460;-70
2022/08/26 03:04:30;;;;;;;10.10;5.57;;;24.10;59.70;;;;;;5063959;28;20460;-70
2022/08/26 03:06:55;;;;;;;5.80;5.23;;;24.00;59.60;;;;;;5049864;28;20458;-70
2022/08/26 03:09:22;;;;;;;5.80;5.23;;;24.10;59.60;;;;;;5065560;28;20280;-68
2022/08/26 03:11:47;;;;;;;5.93;5.33;;;24.10;60.10;;;;;;5051236;28;20352;-70
2022/08/26 03:14:14;;;;;;;5.57;5.07;;;24.00;59.50;;;;;;5064513;28;20570;-69
2022/08/26 03:16:39;;;;;;;6.40;5.00;;;24.00;59.50;;;;;;5067172;28;20222;-70
2022/08/26 03:19:07;;;;;;;4.73;4.20;;;24.00;59.50;;;;;;5069491;28;21147;-70
2022/08/26 03:21:34;;;;;;;5.50;5.03;;;23.90;59.40;;;;;;5062286;28;20250;-69
2022/08/26 03:24:00;;;;;;;5.60;5.10;;;23.90;59.50;;;;;;5055152;28;20465;-70
2022/08/26 03:26:26;;;;;;;6.07;5.40;;;23.90;59.50;;;;;;5048292;28;20469;-70
2022/08/26 03:31:36;;;;;;;5.50;4.77;;;23.90;59.60;;;;;;5070340;28;20964;-70
2022/08/26 03:34:03;;;;;;;5.33;4.83;;;23.80;59.70;;;;;;5069428;28;20604;-69
2022/08/26 03:36:29;;;;;;;6.23;4.80;;;23.80;59.80;;;;;;5066295;28;20574;-70
2022/08/26 03:38:55;;;;;;;5.13;4.63;;;23.80;59.90;;;;;;5068095;28;20464;-70
2022/08/26 03:41:21;;;;;;;5.33;4.83;;;23.80;59.90;;;;;;5066460;28;20222;-69
2022/08/26 03:43:49;;;;;;;6.23;5.07;;;23.70;59.80;;;;;;5084410;28;20309;-70
2022/08/26 03:46:16;;;;;;;6.57;4.83;;;23.70;59.90;;;;;;5082995;28;20660;-70
2022/08/26 03:48:42;;;;;;;6.00;5.23;;;23.70;60.20;;;;;;5052424;28;20979;-69
2022/08/26 03:51:14;;;;;;;6.10;5.07;;;23.70;60.80;;;;;;5067867;28;20452;-70
2022/08/26 03:53:40;;;;;;;6.27;5.40;;;23.70;60.20;;;;;;5058113;28;20449;-70
2022/08/26 03:56:06;;;;;;;5.60;4.83;;;23.70;60.20;;;;;;5067995;28;20488;-69
2022/08/26 03:58:32;;;;;;;7.60;5.70;;;23.60;60.00;;;;;;5062291;28;20508;-69
2022/08/26 04:00:58;;;;;;;5.77;5.23;;;23.60;60.10;;;;;;5042178;28;20233;-70
2022/08/26 04:06:10;;;;;;;5.97;5.47;;;23.60;60.50;;;;;;5063301;28;20218;-70
2022/08/26 04:08:37;;;;;;;5.73;4.90;;;23.50;61.50;;;;;;5064717;28;20481;-70
2022/08/26 04:11:03;;;;;;;6.10;4.67;;;23.40;61.30;;;;;;5067229;28;20460;-69
2022/08/26 04:13:29;;;;;;;4.87;4.37;;;23.40;61.60;;;;;;5088690;28;20464;-69
2022/08/26 04:15:55;;;;;;;6.00;5.03;;;23.40;62.10;;;;;;5065918;28;20461;-69
2022/08/26 04:18:21;;;;;;;5.77;4.43;;;23.30;63.10;;;;;;5065697;28;20234;-70
2022/08/26 04:20:47;;;;;;;4.70;4.13;;;23.30;62.70;;;;;;5067593;28;20670;-69
2022/08/26 04:23:13;;;;;;;5.77;4.80;;;23.20;63.80;;;;;;5066570;28;20776;-69
2022/08/26 04:25:39;;;;;;;6.10;5.50;;;23.20;63.90;;;;;;5060523;28;20456;-69
2022/08/26 04:28:05;;;;;;;5.83;5.30;;;23.10;64.20;;;;;;5068018;28;20457;-70
2022/08/26 04:30:31;;;;;;;5.47;4.97;;;23.10;64.40;;;;;;5065224;28;20322;-69
2022/08/26 04:32:57;;;;;;;5.50;4.57;;;23.10;64.40;;;;;;5067180;28;20613;-70
2022/08/26 04:35:23;;;;;;;7.10;4.43;;;23.10;64.10;;;;;;5065435;28;20464;-69
2022/08/26 04:37:50;;;;;;;5.07;4.60;;;23.10;64.30;;;;;;5060242;28;20452;-70
2022/08/26 04:40:16;;;;;;;8.27;5.27;;;23.00;64.40;;;;;;5068558;28;20557;-70
2022/08/26 04:42:41;;;;;;;5.10;4.63;;;23.10;64.00;;;;;;5066287;28;20507;-70
2022/08/26 04:45:08;;;;;;;6.53;5.90;;;23.10;63.70;;;;;;5065451;28;20221;-70
2022/08/26 04:47:34;;;;;;;5.80;5.30;;;23.10;63.70;;;;;;5063345;28;20217;-69
2022/08/26 04:49:59;;;;;;;7.73;5.50;;;23.10;63.80;;;;;;5058437;28;20465;-69
2022/08/26 04:52:25;;;;;;;6.07;5.47;;;23.20;63.60;;;;;;5054885;28;20203;-70
2022/08/26 04:54:51;;;;;;;5.80;5.30;;;23.20;63.60;;;;;;5066150;28;20758;-70
2022/08/26 04:57:17;;;;;;;9.27;5.30;;;23.20;63.50;;;;;;5046302;28;20301;-69
2022/08/26 04:59:42;;;;;;;7.90;5.90;;;23.20;63.50;;;;;;5065746;28;20252;-70
2022/08/26 05:02:08;;;;;;;6.80;5.50;;;23.10;62.70;;;;;;5061229;28;20804;-69
2022/08/26 05:04:34;;;;;;;5.60;5.00;;;23.10;63.90;;;;;;5060971;28;20718;-70
2022/08/26 05:07:01;;;;;;;6.10;5.27;;;23.10;64.10;;;;;;5050207;28;20810;-70
2022/08/26 05:09:26;;;;;;;6.60;5.90;;;23.10;64.90;;;;;;5067250;28;20458;-69
2022/08/26 05:11:52;;;;;;;7.30;6.37;;;23.00;66.40;;;;;;5067117;28;20449;-69
2022/08/26 05:14:20;;;;;;;10.30;6.10;;;22.90;66.70;;;;;;5067191;28;20223;-70
2022/08/26 05:16:46;;;;;;;6.10;5.50;;;22.90;67.50;;;;;;5056515;28;20226;-69
2022/08/26 05:19:12;;;;;;;6.70;6.00;;;22.90;67.60;;;;;;5057968;28;20469;-70
2022/08/26 05:21:37;;;;;;;6.30;5.80;;;22.90;67.50;;;;;;5039028;28;20215;-70
2022/08/26 05:24:04;;;;;;;6.10;5.50;;;22.90;67.80;;;;;;5051423;28;20647;-70
2022/08/26 05:26:30;;;;;;;7.07;6.37;;;22.90;68.50;;;;;;5068462;28;20230;-69
2022/08/26 05:28:57;;;;;;;6.77;6.17;;;22.90;69.10;;;;;;5060318;28;20453;-70
2022/08/26 05:31:26;;;;;;;8.90;6.80;;;22.90;69.40;;;;;;5062551;28;20453;-69
2022/08/26 05:33:52;;;;;;;8.57;6.47;;;22.80;70.00;;;;;;5051761;28;20461;-70
2022/08/26 05:36:20;;;;;;;6.17;5.57;;;22.80;70.60;;;;;;5042748;28;20474;-69
2022/08/26 05:38:47;;;;;;;7.23;6.30;;;22.80;70.70;;;;;;5065011;28;21010;-70
2022/08/26 05:41:27;;;;;;;7.63;7.00;;;22.80;71.40;;;;;;5065452;28;21228;-69
2022/08/26 05:43:58;;;;;;;8.10;7.27;;;22.70;71.50;;;;;;5062182;28;20983;-69
2022/08/26 05:46:25;;;;;;;7.17;6.50;;;22.70;72.50;;;;;;5066809;28;20979;-69
2022/08/26 05:48:52;;;;;;;8.30;7.00;;;22.80;72.40;;;;;;5061900;28;20956;-69
2022/08/26 05:51:18;;;;;;;8.13;7.33;;;22.80;73.10;;;;;;5069208;28;20452;-69
2022/08/26 05:53:44;;;;;;;7.80;7.00;;;22.80;73.60;;;;;;5059135;28;20862;-69
2022/08/26 05:56:10;;;;;;;8.70;7.10;;;22.80;73.80;;;;;;5068537;28;20638;-69
2022/08/26 05:58:37;;;;;;;8.30;7.50;;;22.80;74.50;;;;;;5079912;28;20230;-68
2022/08/26 06:01:13;;;;;;;9.20;8.37;;;22.80;74.80;;;;;;5061064;28;20470;-69
2022/08/26 06:03:43;;;;;;;11.10;8.07;;;22.80;74.70;;;;;;5063725;28;20436;-69
2022/08/26 06:06:16;;;;;;;9.07;8.20;;;22.80;76.20;;;;;;5066779;28;20540;-69
2022/08/26 06:08:42;;;;;;;11.77;8.53;;;22.90;75.40;;;;;;5064121;28;20453;-70
2022/08/26 06:11:11;;;;;;;9.27;8.30;;;22.90;76.40;;;;;;5059848;28;20507;-69
2022/08/26 06:13:38;;;;;;;9.67;8.40;;;22.90;76.60;;;;;;5065128;28;20448;-70
2022/08/26 06:16:09;;;;;;;13.30;8.30;;;22.90;76.50;;;;;;5050421;28;20468;-69
2022/08/26 06:18:38;;;;;;;10.90;9.43;;;23.00;76.60;;;;;;5064354;28;20515;-69
2022/08/26 06:21:32;;;;;;;10.50;8.87;;;23.00;77.10;;;;;;5064359;28;20548;-69
2022/08/26 06:26:49;;;;;;;9.50;8.63;;;23.10;77.50;;;;;;5065964;28;20449;-69
2022/08/26 06:29:14;;;;;;;10.43;9.40;;;23.10;77.50;;;;;;5067123;28;20457;-69
2022/08/26 06:31:40;;;;;;;9.83;8.77;;;23.10;77.30;;;;;;5042692;28;20491;-69
2022/08/26 06:34:06;;;;;;;10.00;8.67;;;23.20;77.60;;;;;;5056997;28;20599;-69
2022/08/26 06:36:33;;;;;;;10.50;8.93;;;23.20;77.80;;;;;;5067883;28;20227;-70
2022/08/26 06:39:03;;;;;;;9.63;8.63;;;23.30;77.40;;;;;;5070215;28;20225;-70
2022/08/26 06:41:30;;;;;;;11.33;10.13;;;23.30;77.20;;;;;;5064457;28;20453;-69
2022/08/26 06:43:56;;;;;;;10.40;9.40;;;23.40;77.20;;;;;;5059204;28;20952;-70
2022/08/26 06:46:23;;;;;;;9.47;8.43;;;23.40;77.00;;;;;;5065692;28;20502;-69
2022/08/26 06:48:49;;;;;;;11.23;9.00;;;23.40;77.30;;;;;;5058615;28;20456;-69
2022/08/26 06:51:19;;;;;;;10.07;8.37;;;23.50;77.40;;;;;;5060101;28;20487;-70
2022/08/26 06:53:46;;;;;;;12.10;10.07;;;23.50;77.20;;;;;;5071731;28;20215;-70
2022/08/26 06:56:14;;;;;;;14.30;10.13;;;23.50;78.10;;;;;;5053040;28;20481;-69
2022/08/26 06:58:41;;;;;;;11.03;10.03;;;23.50;78.60;;;;;;5044070;28;20453;-70
2022/08/26 07:01:21;;;;;;;12.47;11.13;;;23.60;78.80;;;;;;5042944;28;20529;-69
2022/08/26 07:03:49;;;;;;;11.67;10.53;;;23.60;78.20;;;;;;5058036;28;20524;-69
2022/08/26 07:06:17;;;;;;;11.60;10.40;;;23.70;79.60;;;;;;5065885;28;20465;-69
2022/08/26 07:08:43;;;;;;;14.43;12.03;;;23.70;79.80;;;;;;5049640;28;20467;-69
2022/08/26 07:11:10;;;;;;;12.23;11.13;;;23.70;79.30;;;;;;5068887;28;20555;-69
2022/08/26 07:13:36;;;;;;;11.00;9.90;;;23.80;79.50;;;;;;5069180;28;20250;-70
2022/08/26 07:16:11;;;;;;;13.80;12.50;;;23.80;78.70;;;;;;5069858;28;20461;-69
2022/08/26 07:18:39;;;;;;;11.40;10.40;;;23.90;80.30;;;;;;5066539;28;21013;-70
2022/08/26 07:21:06;;;;;;;13.00;11.57;;;23.90;79.60;;;;;;5069965;28;20488;-69
2022/08/26 07:23:33;;;;;;;13.10;11.90;;;24.00;79.40;;;;;;5050203;28;20519;-70
2022/08/26 07:26:03;;;;;;;15.20;10.97;;;24.10;80.30;;;;;;5078196;28;20464;-69
2022/08/26 07:28:28;;;;;;;12.90;10.97;;;24.10;80.60;;;;;;5051833;28;20854;-70
2022/08/26 07:30:54;;;;;;;12.00;10.77;;;24.20;80.90;;;;;;5051446;28;20472;-70
2022/08/26 07:33:20;;;;;;;14.97;10.90;;;24.20;80.50;;;;;;5067291;28;20207;-69
2022/08/26 07:35:46;;;;;;;11.80;10.63;;;24.30;81.00;;;;;;5063602;28;20752;-69
2022/08/26 07:38:12;;;;;;;11.50;10.37;;;24.30;81.00;;;;;;5052543;28;20198;-69
2022/08/26 07:40:39;;;;;;;11.70;10.63;;;24.40;80.30;;;;;;5060114;28;20249;-69
2022/08/26 07:43:06;;;;;;;13.70;11.67;;;24.50;80.50;;;;;;5067242;28;20480;-69
2022/08/26 07:45:32;;;;;;;11.50;10.30;;;24.40;80.00;;;;;;5049593;28;20453;-69
2022/08/26 07:47:58;;;;;;;10.97;9.87;;;24.50;80.20;;;;;;5052081;28;20457;-70
2022/08/26 07:50:24;;;;;;;11.83;10.43;;;24.60;80.20;;;;;;5064757;28;20964;-68
2022/08/26 07:52:50;;;;;;;13.07;10.00;;;24.60;80.00;;;;;;5050662;28;20229;-70
2022/08/26 07:55:16;;;;;;;11.80;10.60;;;24.80;80.40;;;;;;5065557;28;20206;-70
2022/08/26 07:57:42;;;;;;;12.73;11.43;;;24.80;79.90;;;;;;5064915;28;20211;-70
2022/08/26 08:00:11;;;;;;;10.80;9.67;;;24.90;80.10;;;;;;5063849;28;20465;-70
2022/08/26 08:02:39;;;;;;;12.70;11.50;;;25.00;80.10;;;;;;5066833;28;20984;-69
2022/08/26 08:05:06;;;;;;;15.43;11.60;;;25.00;80.00;;;;;;5067273;28;20492;-69
2022/08/26 08:07:31;;;;;;;11.30;10.30;;;25.00;79.70;;;;;;5067963;28;20230;-69
2022/08/26 08:09:57;;;;;;;12.47;11.03;;;25.20;80.10;;;;;;5054466;28;20857;-70
2022/08/26 08:12:23;;;;;;;12.03;10.73;;;25.20;79.80;;;;;;5050488;28;20226;-69
2022/08/26 08:14:50;;;;;;;12.70;11.60;;;25.30;79.90;;;;;;5061052;28;20801;-70
2022/08/26 08:17:16;;;;;;;11.93;9.93;;;25.40;79.70;;;;;;5066383;28;20300;-69
2022/08/26 08:19:41;;;;;;;12.27;11.10;;;25.50;79.60;;;;;;5055598;28;20488;-71
2022/08/26 08:22:08;;;;;;;11.33;10.23;;;25.50;79.50;;;;;;5049588;28;20229;-69
2022/08/26 08:24:34;;;;;;;11.67;10.57;;;25.60;79.50;;;;;;5062487;28;20227;-70
2022/08/26 08:27:00;;;;;;;11.63;10.50;;;25.70;80.00;;;;;;5051555;28;20486;-70
2022/08/26 08:29:28;;;;;;;12.30;11.10;;;25.80;79.60;;;;;;5075559;28;20475;-69
2022/08/26 08:31:55;;;;;;;12.90;11.27;;;25.80;78.80;;;;;;5047465;28;21030;-70
2022/08/26 08:34:21;;;;;;;13.13;11.83;;;25.90;78.70;;;;;;5046165;28;20586;-70
2022/08/26 08:36:48;;;;;;;13.20;12.03;;;26.00;78.20;;;;;;5060283;28;20459;-69
2022/08/26 08:39:13;;;;;;;13.30;11.10;;;25.90;77.60;;;;;;5062824;28;20471;-70
2022/08/26 08:41:58;;;;;;;11.70;10.60;;;26.00;78.60;;;;;;5050687;28;20450;-70
2022/08/26 08:44:25;;;;;;;12.40;11.27;;;26.10;78.30;;;;;;5061277;28;20232;-70
2022/08/26 08:46:56;;;;;;;15.70;12.07;;;26.30;78.30;;;;;;5047366;28;20452;-70
2022/08/26 08:49:24;;;;;;;11.67;10.57;;;26.30;77.80;;;;;;5062974;28;20464;-70
2022/08/26 08:52:25;;;;;;;12.57;11.47;;;26.40;77.90;;;;;;5064688;28;20456;-70
2022/08/26 08:54:52;;;;;;;13.00;11.63;;;26.50;77.50;;;;;;5053698;28;20460;-70
2022/08/26 08:57:33;;;;;;;12.03;10.93;;;26.70;77.10;;;;;;5052320;28;20538;-70
2022/08/26 09:00:10;;;;;;;11.60;10.50;;;26.70;77.20;;;;;;5050695;28;20482;-70
2022/08/26 09:02:49;;;;;;;19.63;12.20;;;26.90;76.40;;;;;;5049422;28;20463;-69
2022/08/26 09:05:17;;;;;;;12.67;10.43;;;26.90;76.50;;;;;;5062816;28;20518;-70
2022/08/26 09:07:51;;;;;;;10.90;9.90;;;27.00;76.70;;;;;;5062053;28;20483;-69
2022/08/26 09:10:36;;;;;;;11.30;10.20;;;27.10;75.00;;;;;;5065541;28;20604;-70
2022/08/26 09:13:09;;;;;;;12.40;10.43;;;27.10;75.40;;;;;;5057441;28;20832;-69
2022/08/26 09:15:59;;;;;;;10.27;9.27;;;27.20;75.60;;;;;;5049528;28;20456;-69
2022/08/26 09:19:06;;;;;;;11.87;10.70;;;27.40;75.40;;;;;;5062504;28;20473;-69
2022/08/26 09:21:32;;;;;;;11.70;10.60;;;27.50;74.70;;;;;;5047806;28;20223;-68
2022/08/26 09:23:58;;;;;;;12.07;10.97;;;27.60;74.50;;;;;;5072214;28;20485;-70
2022/08/26 09:26:28;;;;;;;11.23;10.23;;;27.60;74.20;;;;;;5064698;28;20228;-69
2022/08/26 09:29:07;;;;;;;12.43;11.33;;;27.70;74.20;;;;;;5064599;28;20216;-69
2022/08/26 09:31:37;;;;;;;11.77;10.77;;;27.80;73.90;;;;;;5051562;28;20227;-69
2022/08/26 09:34:11;;;;;;;11.70;10.60;;;28.00;73.50;;;;;;5055352;28;20224;-69
2022/08/26 09:36:38;;;;;;;11.25;10.35;;;28.10;73.60;;;;;;5065758;28;20228;-69
2022/08/26 09:39:25;;;;;;;12.35;11.00;;;28.20;73.20;;;;;;5073524;28;20233;-69
2022/08/26 09:42:19;;;;;;;12.70;11.50;;;28.30;72.90;;;;;;5059904;28;20698;-69
2022/08/26 09:45:05;;;;;;;12.50;11.20;;;28.30;71.60;;;;;;5063843;28;20225;-69
2022/08/26 09:47:57;;;;;;;12.95;11.65;;;28.30;72.30;;;;;;5047994;28;20714;-68
2022/08/26 09:50:28;;;;;;;12.98;11.77;;;28.50;72.20;;;;;;5036611;28;20314;-69
2022/08/26 09:53:16;;;;;;;13.13;11.95;;;28.60;71.70;;;;;;5045860;28;20231;-70
2022/08/26 09:55:45;;;;;;;11.98;10.77;;;28.70;71.80;;;;;;5056671;28;20647;-70
2022/08/26 09:58:13;;;;;;;12.52;11.32;;;28.80;71.30;;;;;;5046144;28;20249;-69
2022/08/26 10:00:53;;;;;;;11.85;10.63;;;29.00;71.10;;;;;;5058984;28;20288;-69
2022/08/26 10:03:31;;;;;;;12.60;11.52;;;29.10;71.10;;;;;;5045841;28;20218;-70
2022/08/26 10:05:58;;;;;;;11.27;10.07;;;29.20;70.90;;;;;;5045278;28;20611;-70
2022/08/26 10:08:37;;;;;;;12.05;10.95;;;29.30;70.50;;;;;;5060590;28;20225;-70
2022/08/26 10:11:14;;;;;;;11.52;10.50;;;29.30;70.00;;;;;;5048726;28;20321;-69
2022/08/26 10:13:45;;;;;;;11.80;10.63;;;29.40;69.50;;;;;;5050312;28;20616;-69
2022/08/26 10:16:32;;;;;;;13.18;11.38;;;29.50;69.60;;;;;;5059672;28;20314;-68
2022/08/26 10:19:06;;;;;;;11.23;10.32;;;29.50;69.00;;;;;;5039608;28;20347;-70
2022/08/26 10:21:49;;;;;;;11.25;10.15;;;29.40;68.30;;;;;;5043819;28;20235;-69
2022/08/26 10:24:21;;;;;;;11.18;10.18;;;29.50;68.50;;;;;;5043760;28;20313;-69
2022/08/26 10:27:06;;;;;;;12.18;10.75;;;29.60;68.60;;;;;;5052981;28;20230;-69
2022/08/26 10:29:42;;;;;;;10.73;9.82;;;29.70;68.20;;;;;;5046475;28;20245;-68
2022/08/26 10:32:23;;;;;;;11.52;10.50;;;29.80;67.90;;;;;;5045930;28;20227;-69
2022/08/26 10:34:48;;;;;;;11.35;10.32;;;29.90;67.70;;;;;;5060446;28;20229;-69
2022/08/26 10:37:22;;;;;;;11.45;10.45;;;30.00;67.40;;;;;;5060273;28;20233;-69
2022/08/26 10:40:00;;;;;;;10.70;9.65;;;30.10;66.90;;;;;;5041018;28;20282;-70
2022/08/26 10:42:44;;;;;;;11.07;9.95;;;30.20;66.90;;;;;;5061285;28;20226;-69
2022/08/26 10:45:13;;;;;;;11.82;10.60;;;30.40;66.50;;;;;;5048528;28;20238;-69
2022/08/26 10:48:06;;;;;;;11.77;10.85;;;30.60;65.70;;;;;;5061242;28;20211;-69
2022/08/26 10:50:36;;;;;;;11.38;10.38;;;30.50;65.50;;;;;;5050035;28;20225;-69
2022/08/26 10:53:02;;;;;;;11.75;10.65;;;30.30;64.90;;;;;;5073044;28;20215;-70
2022/08/26 10:55:37;;;;;;;13.25;10.70;;;30.30;64.90;;;;;;5051934;28;20874;-69
2022/08/26 10:58:27;;;;;;;13.02;10.48;;;30.20;64.40;;;;;;5075285;28;20251;-69
2022/08/26 11:04:08;;;;;;;10.82;9.85;;;30.40;65.00;;;;;;5063406;28;20222;-70
2022/08/26 11:06:34;;;;;;;12.95;11.65;;;30.50;64.00;;;;;;5059944;28;20221;-69
2022/08/26 11:09:05;;;;;;;12.15;10.93;;;30.50;64.30;;;;;;5065211;28;20253;-70
2022/08/26 11:11:40;;;;;;;11.48;10.38;;;30.50;64.40;;;;;;5046349;28;20378;-70
2022/08/26 11:14:09;;;;;;;11.35;10.20;;;30.60;64.20;;;;;;5062500;28;20227;-69
2022/08/26 11:16:47;;;;;;;12.60;11.52;;;30.80;63.50;;;;;;5049473;28;20227;-69
2022/08/26 11:19:39;;;;;;;13.43;10.30;;;30.90;63.10;;;;;;5068700;28;20227;-69
2022/08/26 11:22:09;;;;;;;12.98;11.68;;;31.10;63.40;;;;;;5046928;28;20307;-69
2022/08/26 11:24:38;;;;;;;12.35;11.27;;;31.20;62.70;;;;;;5059890;28;20222;-69
2022/08/26 11:27:05;;;;;;;12.27;11.18;;;31.20;62.50;;;;;;5051652;28;20302;-69
2022/08/26 11:29:59;;;;;;;11.23;10.23;;;31.30;62.70;;;;;;5060494;28;20214;-69
2022/08/26 11:32:49;;;;;;;12.30;11.20;;;31.40;62.70;;;;;;5077580;28;20712;-70
2022/08/26 11:35:18;;;;;;;12.82;11.63;;;31.50;62.50;;;;;;5058760;28;20223;-69
2022/08/26 11:37:49;;;;;;;13.45;12.23;;;31.60;62.40;;;;;;5063668;28;20225;-69
2022/08/26 11:40:26;;;;;;;13.00;11.90;;;31.50;61.60;;;;;;5052615;28;20299;-69
2022/08/26 11:43:22;;;;;;;13.43;12.07;;;31.40;61.80;;;;;;5048338;28;20222;-69
2022/08/26 11:45:59;;;;;;;15.02;13.38;;;31.40;62.10;;;;;;5074539;28;20313;-69
2022/08/26 11:48:25;;;;;;;14.80;13.40;;;31.50;62.20;;;;;;5066748;28;20237;-70
2022/08/26 11:50:56;;;;;;;14.35;12.95;;;31.50;62.20;;;;;;5072270;28;20215;-70
2022/08/26 11:53:22;;;;;;;16.13;12.95;;;31.60;62.30;;;;;;5049148;28;20666;-70
2022/08/26 11:55:51;;;;;;;15.43;13.95;;;31.80;62.40;;;;;;5068690;28;20592;-70
2022/08/26 11:58:18;;;;;;;19.48;14.02;;;31.80;62.20;;;;;;5078248;28;20203;-70
2022/08/26 12:00:48;;;;;;;14.75;13.25;;;31.90;63.10;;;;;;5061207;28;20234;-70
2022/08/26 12:03:22;;;;;;;17.13;15.40;;;32.00;62.30;;;;;;5060286;28;20254;-69
2022/08/26 12:05:50;;;;;;;17.17;15.38;;;32.00;62.50;;;;;;5052086;28;20288;-69
2022/08/26 12:08:24;;;;;;;18.27;16.35;;;32.10;62.40;;;;;;5051282;28;20302;-70
2022/08/26 12:11:02;;;;;;;18.77;16.92;;;32.30;62.60;;;;;;5041828;28;20215;-70
2022/08/26 12:13:28;;;;;;;20.02;18.00;;;32.40;62.50;;;;;;5056504;28;20691;-69
2022/08/26 12:15:57;;;;;;;20.17;18.17;;;32.40;63.00;;;;;;5060954;28;20226;-70
2022/08/26 12:18:29;;;;;;;20.55;18.50;;;32.60;62.60;;;;;;5060179;28;20262;-70
2022/08/26 12:20:57;;;;;;;19.98;18.00;;;32.70;62.20;;;;;;5047484;28;20257;-69
2022/08/26 12:23:34;;;;;;;21.00;18.88;;;32.70;61.80;;;;;;5041671;28;20239;-69
2022/08/26 12:26:21;;;;;;;22.13;19.92;;;32.50;61.60;;;;;;5060590;28;20600;-70
2022/08/26 12:28:54;;;;;;;20.35;18.30;;;32.50;62.30;;;;;;5052558;28;20227;-68
2022/08/26 12:31:31;;;;;;;22.60;20.20;;;32.60;61.90;;;;;;5042146;28;20827;-69
2022/08/26 12:33:59;;;;;;;23.35;20.50;;;32.50;61.60;;;;;;5055369;28;20227;-70
2022/08/26 12:36:37;;;;;;;23.52;21.13;;;32.40;62.20;;;;;;5057887;28;20214;-70
2022/08/26 12:39:12;;;;;;;16.17;14.55;;;32.10;61.70;;;;;;5055126;28;20231;-70
2022/08/26 12:41:40;;;;;;;20.05;13.52;;;31.80;64.00;;;;;;5038671;28;20318;-69
2022/08/26 12:44:06;;;;;;;23.55;16.25;;;31.70;72.70;;;;;;5044671;28;20255;-68
2022/08/26 12:46:32;;;;;;;23.13;13.98;;;31.50;75.10;;;;;;5060206;28;20223;-69
2022/08/26 12:49:02;;;;;;;22.13;16.52;;;31.50;77.20;;;;;;5046599;28;20246;-68
2022/08/26 12:51:31;;;;;;;22.15;16.33;;;31.40;77.80;;;;;;5044927;28;20215;-68
2022/08/26 12:53:57;;;;;;;15.73;13.55;;;31.20;77.50;;;;;;5061870;28;20230;-68
2022/08/26 12:56:23;;;;;;;18.75;15.57;;;31.00;77.60;;;;;;5060217;28;20225;-68
2022/08/26 12:59:19;;;;;;;17.67;15.73;;;31.10;79.10;;;;;;5056935;28;20228;-68
2022/08/26 13:01:45;;;;;;;16.80;14.88;;;31.10;78.60;;;;;;5057587;28;20249;-68
2022/08/26 13:04:35;;;;;;;21.95;15.85;;;31.00;79.80;;;;;;5061930;28;20211;-68